sensor_id;sensor_type;location;lat;lon;timestamp;P1;durP1;ratioP1;P2;durP2;ratioP2
13406;SDS011;6774;48.208;10.766;2023-05-07T00:01:29;2.70;;;2.60;;
13406;SDS011;6774;48.208;10.766;2023-05-07T00:03:57;3.63;;;3.43;;
13406;SDS011;6774;48.208;10.766;2023-05-07T00:06:27;2.50;;;2.40;;
13406;SDS011;6774;48.208;10.766;2023-05-07T00:08:55;3.07;;;2.97;;
13406;SDS011;6774;48.208;10.766;2023-05-07T00:11:23;2.70;;;2.60;;
13406;SDS011;6774;48.208;10.766;2023-05-07T00:13:52;3.23;;;3.03;;
13406;SDS011;6774;48.208;10.766;2023-05-07T00:16:20;3.80;;;3.60;;
13406;SDS011;6774;48.208;10.766;2023-05-07T00:18:47;3.60;;;3.37;;
13406;SDS011;6774;48.208;10.766;2023-05-07T00:21:15;2.80;;;2.70;;
13406;SDS011;6774;48.208;10.766;2023-05-07T00:23:44;3.20;;;3.03;;
13406;SDS011;6774;48.208;10.766;2023-05-07T00:26:12;2.93;;;2.73;;
13406;SDS011;6774;48.208;10.766;2023-05-07T00:28:42;6.50;;;6.03;;
13406;SDS011;6774;48.208;10.766;2023-05-07T00:31:10;4.77;;;4.57;;
13406;SDS011;6774;48.208;10.766;2023-05-07T00:33:38;4.57;;;4.27;;
13406;SDS011;6774;48.208;10.766;2023-05-07T00:36:06;4.70;;;4.40;;
13406;SDS011;6774;48.208;10.766;2023-05-07T00:38:34;3.73;;;3.53;;
13406;SDS011;6774;48.208;10.766;2023-05-07T00:41:03;4.53;;;4.23;;
13406;SDS011;6774;48.208;10.766;2023-05-07T00:43:31;4.17;;;3.97;;
13406;SDS011;6774;48.208;10.766;2023-05-07T00:45:59;2.97;;;2.77;;
13406;SDS011;6774;48.208;10.766;2023-05-07T00:48:27;5.57;;;2.50;;
13406;SDS011;6774;48.208;10.766;2023-05-07T00:50:55;2.23;;;2.13;;
13406;SDS011;6774;48.208;10.766;2023-05-07T00:53:24;2.70;;;2.50;;
13406;SDS011;6774;48.208;10.766;2023-05-07T00:55:53;3.23;;;2.00;;
13406;SDS011;6774;48.208;10.766;2023-05-07T00:58:22;3.47;;;3.37;;
13406;SDS011;6774;48.208;10.766;2023-05-07T01:00:51;2.27;;;2.17;;
13406;SDS011;6774;48.208;10.766;2023-05-07T01:03:18;3.23;;;3.03;;
13406;SDS011;6774;48.208;10.766;2023-05-07T01:05:47;7.20;;;3.47;;
13406;SDS011;6774;48.208;10.766;2023-05-07T01:08:17;2.63;;;2.53;;
13406;SDS011;6774;48.208;10.766;2023-05-07T01:10:45;3.10;;;2.90;;
13406;SDS011;6774;48.208;10.766;2023-05-07T01:13:14;2.13;;;2.03;;
13406;SDS011;6774;48.208;10.766;2023-05-07T01:15:44;2.50;;;2.40;;
13406;SDS011;6774;48.208;10.766;2023-05-07T01:18:11;2.80;;;2.70;;
13406;SDS011;6774;48.208;10.766;2023-05-07T01:20:39;2.00;;;1.90;;
13406;SDS011;6774;48.208;10.766;2023-05-07T01:23:08;2.10;;;2.00;;
13406;SDS011;6774;48.208;10.766;2023-05-07T01:25:38;3.70;;;3.50;;
13406;SDS011;6774;48.208;10.766;2023-05-07T01:28:08;3.30;;;3.00;;
13406;SDS011;6774;48.208;10.766;2023-05-07T01:30:38;3.40;;;3.20;;
13406;SDS011;6774;48.208;10.766;2023-05-07T01:33:10;3.20;;;2.57;;
13406;SDS011;6774;48.208;10.766;2023-05-07T01:35:41;4.17;;;3.87;;
13406;SDS011;6774;48.208;10.766;2023-05-07T01:38:14;3.87;;;3.47;;
13406;SDS011;6774;48.208;10.766;2023-05-07T01:40:43;4.67;;;4.40;;
13406;SDS011;6774;48.208;10.766;2023-05-07T01:43:11;6.63;;;4.00;;
13406;SDS011;6774;48.208;10.766;2023-05-07T01:45:39;3.50;;;3.30;;
13406;SDS011;6774;48.208;10.766;2023-05-07T01:48:10;2.70;;;2.50;;
13406;SDS011;6774;48.208;10.766;2023-05-07T01:50:39;4.10;;;3.80;;
13406;SDS011;6774;48.208;10.766;2023-05-07T01:53:06;3.80;;;3.60;;
13406;SDS011;6774;48.208;10.766;2023-05-07T01:55:35;4.00;;;3.63;;
13406;SDS011;6774;48.208;10.766;2023-05-07T01:58:04;3.60;;;3.40;;
13406;SDS011;6774;48.208;10.766;2023-05-07T02:00:32;3.27;;;3.07;;
13406;SDS011;6774;48.208;10.766;2023-05-07T02:03:00;4.90;;;3.73;;
13406;SDS011;6774;48.208;10.766;2023-05-07T02:05:41;4.50;;;4.10;;
13406;SDS011;6774;48.208;10.766;2023-05-07T02:08:17;4.00;;;3.70;;
13406;SDS011;6774;48.208;10.766;2023-05-07T02:10:46;5.77;;;5.20;;
13406;SDS011;6774;48.208;10.766;2023-05-07T02:13:14;5.80;;;5.50;;
13406;SDS011;6774;48.208;10.766;2023-05-07T02:15:42;5.03;;;4.83;;
13406;SDS011;6774;48.208;10.766;2023-05-07T02:18:12;6.13;;;5.57;;
13406;SDS011;6774;48.208;10.766;2023-05-07T02:20:40;6.20;;;5.80;;
13406;SDS011;6774;48.208;10.766;2023-05-07T02:23:07;6.10;;;5.80;;
13406;SDS011;6774;48.208;10.766;2023-05-07T02:25:35;5.07;;;4.77;;
13406;SDS011;6774;48.208;10.766;2023-05-07T02:28:05;5.73;;;5.33;;
13406;SDS011;6774;48.208;10.766;2023-05-07T02:30:59;6.23;;;5.93;;
13406;SDS011;6774;48.208;10.766;2023-05-07T02:33:28;5.63;;;5.33;;
13406;SDS011;6774;48.208;10.766;2023-05-07T02:36:04;7.60;;;7.10;;
13406;SDS011;6774;48.208;10.766;2023-05-07T02:38:34;5.27;;;4.87;;
13406;SDS011;6774;48.208;10.766;2023-05-07T02:41:03;5.60;;;5.30;;
13406;SDS011;6774;48.208;10.766;2023-05-07T02:43:32;5.83;;;4.37;;
13406;SDS011;6774;48.208;10.766;2023-05-07T02:46:00;4.37;;;4.17;;
13406;SDS011;6774;48.208;10.766;2023-05-07T02:48:29;3.83;;;3.63;;
13406;SDS011;6774;48.208;10.766;2023-05-07T02:50:57;5.53;;;5.13;;
13406;SDS011;6774;48.208;10.766;2023-05-07T02:53:25;3.90;;;3.70;;
13406;SDS011;6774;48.208;10.766;2023-05-07T02:55:53;5.20;;;4.90;;
13406;SDS011;6774;48.208;10.766;2023-05-07T02:58:20;2.83;;;2.73;;
13406;SDS011;6774;48.208;10.766;2023-05-07T03:00:50;2.63;;;2.53;;
13406;SDS011;6774;48.208;10.766;2023-05-07T03:03:53;3.00;;;2.80;;
13406;SDS011;6774;48.208;10.766;2023-05-07T03:06:21;2.13;;;2.03;;
13406;SDS011;6774;48.208;10.766;2023-05-07T03:08:49;3.33;;;2.93;;
13406;SDS011;6774;48.208;10.766;2023-05-07T03:11:17;2.33;;;2.23;;
13406;SDS011;6774;48.208;10.766;2023-05-07T03:13:45;2.90;;;2.63;;
13406;SDS011;6774;48.208;10.766;2023-05-07T03:16:14;2.23;;;2.13;;
13406;SDS011;6774;48.208;10.766;2023-05-07T03:18:42;2.80;;;2.70;;
13406;SDS011;6774;48.208;10.766;2023-05-07T03:21:10;1.90;;;1.80;;
13406;SDS011;6774;48.208;10.766;2023-05-07T03:23:38;3.57;;;2.87;;
13406;SDS011;6774;48.208;10.766;2023-05-07T03:26:06;2.40;;;2.27;;
13406;SDS011;6774;48.208;10.766;2023-05-07T03:28:34;3.53;;;2.57;;
13406;SDS011;6774;48.208;10.766;2023-05-07T03:31:05;4.07;;;3.37;;
13406;SDS011;6774;48.208;10.766;2023-05-07T03:33:34;3.23;;;3.03;;
13406;SDS011;6774;48.208;10.766;2023-05-07T03:36:02;4.10;;;3.90;;
13406;SDS011;6774;48.208;10.766;2023-05-07T03:38:31;2.43;;;2.33;;
13406;SDS011;6774;48.208;10.766;2023-05-07T03:40:58;3.40;;;3.20;;
13406;SDS011;6774;48.208;10.766;2023-05-07T03:43:27;2.53;;;2.43;;
13406;SDS011;6774;48.208;10.766;2023-05-07T03:46:01;2.97;;;2.77;;
13406;SDS011;6774;48.208;10.766;2023-05-07T03:48:29;3.30;;;3.10;;
13406;SDS011;6774;48.208;10.766;2023-05-07T03:50:59;2.63;;;2.53;;
13406;SDS011;6774;48.208;10.766;2023-05-07T03:53:31;2.17;;;2.07;;
13406;SDS011;6774;48.208;10.766;2023-05-07T03:55:59;2.67;;;2.57;;
13406;SDS011;6774;48.208;10.766;2023-05-07T03:58:30;2.40;;;2.20;;
13406;SDS011;6774;48.208;10.766;2023-05-07T04:01:03;2.10;;;2.00;;
13406;SDS011;6774;48.208;10.766;2023-05-07T04:03:31;2.63;;;2.43;;
13406;SDS011;6774;48.208;10.766;2023-05-07T04:06:01;3.27;;;3.10;;
13406;SDS011;6774;48.208;10.766;2023-05-07T04:08:30;2.30;;;2.20;;
13406;SDS011;6774;48.208;10.766;2023-05-07T04:10:58;2.23;;;2.13;;
13406;SDS011;6774;48.208;10.766;2023-05-07T04:13:30;3.27;;;3.07;;
13406;SDS011;6774;48.208;10.766;2023-05-07T04:16:00;4.23;;;3.93;;
13406;SDS011;6774;48.208;10.766;2023-05-07T04:18:31;3.97;;;3.63;;
13406;SDS011;6774;48.208;10.766;2023-05-07T04:20:58;3.83;;;3.63;;
13406;SDS011;6774;48.208;10.766;2023-05-07T04:23:28;3.77;;;3.07;;
13406;SDS011;6774;48.208;10.766;2023-05-07T04:25:59;4.83;;;2.93;;
13406;SDS011;6774;48.208;10.766;2023-05-07T04:28:37;2.30;;;2.20;;
13406;SDS011;6774;48.208;10.766;2023-05-07T04:31:06;2.70;;;2.50;;
13406;SDS011;6774;48.208;10.766;2023-05-07T04:33:36;2.63;;;2.53;;
13406;SDS011;6774;48.208;10.766;2023-05-07T04:36:08;3.13;;;2.67;;
13406;SDS011;6774;48.208;10.766;2023-05-07T04:38:42;2.67;;;2.57;;
13406;SDS011;6774;48.208;10.766;2023-05-07T04:41:12;2.40;;;2.00;;
13406;SDS011;6774;48.208;10.766;2023-05-07T04:43:40;2.40;;;2.30;;
13406;SDS011;6774;48.208;10.766;2023-05-07T04:46:09;2.23;;;2.07;;
13406;SDS011;6774;48.208;10.766;2023-05-07T04:48:37;2.10;;;2.00;;
13406;SDS011;6774;48.208;10.766;2023-05-07T04:51:05;2.70;;;2.60;;
13406;SDS011;6774;48.208;10.766;2023-05-07T04:53:35;2.63;;;2.50;;
13406;SDS011;6774;48.208;10.766;2023-05-07T04:56:02;4.37;;;4.07;;
13406;SDS011;6774;48.208;10.766;2023-05-07T04:58:37;4.13;;;3.83;;
13406;SDS011;6774;48.208;10.766;2023-05-07T05:01:05;3.70;;;3.50;;
13406;SDS011;6774;48.208;10.766;2023-05-07T05:03:33;3.90;;;3.70;;
13406;SDS011;6774;48.208;10.766;2023-05-07T05:06:01;3.90;;;3.70;;
13406;SDS011;6774;48.208;10.766;2023-05-07T05:08:32;3.97;;;3.77;;
13406;SDS011;6774;48.208;10.766;2023-05-07T05:11:03;3.47;;;3.27;;
13406;SDS011;6774;48.208;10.766;2023-05-07T05:13:33;2.17;;;2.07;;
13406;SDS011;6774;48.208;10.766;2023-05-07T05:16:08;3.30;;;2.90;;
13406;SDS011;6774;48.208;10.766;2023-05-07T05:18:36;3.07;;;2.87;;
13406;SDS011;6774;48.208;10.766;2023-05-07T05:21:04;3.70;;;3.57;;
13406;SDS011;6774;48.208;10.766;2023-05-07T05:23:32;3.23;;;3.07;;
13406;SDS011;6774;48.208;10.766;2023-05-07T05:26:00;3.17;;;2.97;;
13406;SDS011;6774;48.208;10.766;2023-05-07T05:28:32;5.20;;;4.73;;
13406;SDS011;6774;48.208;10.766;2023-05-07T05:31:01;4.87;;;4.57;;
13406;SDS011;6774;48.208;10.766;2023-05-07T05:33:32;5.30;;;5.00;;
13406;SDS011;6774;48.208;10.766;2023-05-07T05:36:03;4.23;;;4.03;;
13406;SDS011;6774;48.208;10.766;2023-05-07T05:38:32;4.30;;;4.10;;
13406;SDS011;6774;48.208;10.766;2023-05-07T05:41:00;5.53;;;5.23;;
13406;SDS011;6774;48.208;10.766;2023-05-07T05:43:29;6.83;;;6.07;;
13406;SDS011;6774;48.208;10.766;2023-05-07T05:45:59;6.20;;;5.80;;
13406;SDS011;6774;48.208;10.766;2023-05-07T05:48:28;5.90;;;5.60;;
13406;SDS011;6774;48.208;10.766;2023-05-07T05:50:57;5.50;;;5.20;;
13406;SDS011;6774;48.208;10.766;2023-05-07T05:53:25;4.93;;;4.70;;
13406;SDS011;6774;48.208;10.766;2023-05-07T05:55:53;5.17;;;4.70;;
13406;SDS011;6774;48.208;10.766;2023-05-07T05:58:21;4.80;;;4.60;;
13406;SDS011;6774;48.208;10.766;2023-05-07T06:00:54;5.40;;;5.10;;
13406;SDS011;6774;48.208;10.766;2023-05-07T06:03:26;5.70;;;5.37;;
13406;SDS011;6774;48.208;10.766;2023-05-07T06:05:55;5.03;;;4.63;;
13406;SDS011;6774;48.208;10.766;2023-05-07T06:08:23;4.87;;;4.57;;
13406;SDS011;6774;48.208;10.766;2023-05-07T06:10:51;4.03;;;3.73;;
13406;SDS011;6774;48.208;10.766;2023-05-07T06:13:19;5.30;;;5.00;;
13406;SDS011;6774;48.208;10.766;2023-05-07T06:15:47;5.60;;;5.30;;
13406;SDS011;6774;48.208;10.766;2023-05-07T06:18:15;5.20;;;4.80;;
13406;SDS011;6774;48.208;10.766;2023-05-07T06:20:44;4.07;;;3.87;;
13406;SDS011;6774;48.208;10.766;2023-05-07T06:23:21;6.30;;;4.87;;
13406;SDS011;6774;48.208;10.766;2023-05-07T06:25:49;5.33;;;5.03;;
13406;SDS011;6774;48.208;10.766;2023-05-07T06:28:20;4.40;;;4.17;;
13406;SDS011;6774;48.208;10.766;2023-05-07T06:30:49;5.77;;;4.70;;
13406;SDS011;6774;48.208;10.766;2023-05-07T06:33:17;4.07;;;3.77;;
13406;SDS011;6774;48.208;10.766;2023-05-07T06:35:47;4.20;;;4.00;;
13406;SDS011;6774;48.208;10.766;2023-05-07T06:38:15;4.33;;;4.13;;
13406;SDS011;6774;48.208;10.766;2023-05-07T06:40:47;4.70;;;4.50;;
13406;SDS011;6774;48.208;10.766;2023-05-07T06:43:16;4.50;;;4.30;;
13406;SDS011;6774;48.208;10.766;2023-05-07T06:45:53;3.53;;;3.33;;
13406;SDS011;6774;48.208;10.766;2023-05-07T06:48:21;4.73;;;4.53;;
13406;SDS011;6774;48.208;10.766;2023-05-07T06:51:00;5.00;;;4.70;;
13406;SDS011;6774;48.208;10.766;2023-05-07T06:53:29;3.40;;;3.20;;
13406;SDS011;6774;48.208;10.766;2023-05-07T06:55:59;4.07;;;3.77;;
13406;SDS011;6774;48.208;10.766;2023-05-07T06:58:26;4.33;;;4.07;;
13406;SDS011;6774;48.208;10.766;2023-05-07T07:00:54;3.07;;;2.97;;
13406;SDS011;6774;48.208;10.766;2023-05-07T07:03:22;3.10;;;3.00;;
13406;SDS011;6774;48.208;10.766;2023-05-07T07:05:51;4.37;;;4.10;;
13406;SDS011;6774;48.208;10.766;2023-05-07T07:08:21;4.60;;;3.27;;
13406;SDS011;6774;48.208;10.766;2023-05-07T07:10:50;4.63;;;4.23;;
13406;SDS011;6774;48.208;10.766;2023-05-07T07:13:18;3.27;;;2.97;;
13406;SDS011;6774;48.208;10.766;2023-05-07T07:15:46;4.10;;;3.80;;
13406;SDS011;6774;48.208;10.766;2023-05-07T07:18:13;2.87;;;2.77;;
13406;SDS011;6774;48.208;10.766;2023-05-07T07:20:42;3.50;;;3.30;;
13406;SDS011;6774;48.208;10.766;2023-05-07T07:23:10;2.83;;;2.63;;
13406;SDS011;6774;48.208;10.766;2023-05-07T07:25:40;3.07;;;2.97;;
13406;SDS011;6774;48.208;10.766;2023-05-07T07:28:08;8.83;;;4.40;;
13406;SDS011;6774;48.208;10.766;2023-05-07T07:30:37;3.80;;;3.60;;
13406;SDS011;6774;48.208;10.766;2023-05-07T07:33:05;3.17;;;2.97;;
13406;SDS011;6774;48.208;10.766;2023-05-07T07:35:35;2.97;;;2.87;;
13406;SDS011;6774;48.208;10.766;2023-05-07T07:38:04;2.93;;;2.70;;
13406;SDS011;6774;48.208;10.766;2023-05-07T07:40:34;3.13;;;2.80;;
13406;SDS011;6774;48.208;10.766;2023-05-07T07:43:04;2.90;;;2.80;;
13406;SDS011;6774;48.208;10.766;2023-05-07T07:45:32;2.83;;;2.73;;
13406;SDS011;6774;48.208;10.766;2023-05-07T07:48:00;2.63;;;2.53;;
13406;SDS011;6774;48.208;10.766;2023-05-07T07:50:31;2.70;;;2.47;;
13406;SDS011;6774;48.208;10.766;2023-05-07T07:53:12;3.13;;;2.73;;
13406;SDS011;6774;48.208;10.766;2023-05-07T07:55:40;3.30;;;2.20;;
13406;SDS011;6774;48.208;10.766;2023-05-07T07:58:13;1.70;;;1.60;;
13406;SDS011;6774;48.208;10.766;2023-05-07T08:00:41;5.00;;;2.33;;
13406;SDS011;6774;48.208;10.766;2023-05-07T08:03:09;4.30;;;2.87;;
13406;SDS011;6774;48.208;10.766;2023-05-07T08:05:42;2.60;;;2.40;;
13406;SDS011;6774;48.208;10.766;2023-05-07T08:08:09;2.10;;;2.00;;
13406;SDS011;6774;48.208;10.766;2023-05-07T08:10:39;2.83;;;2.57;;
13406;SDS011;6774;48.208;10.766;2023-05-07T08:13:16;3.47;;;3.27;;
13406;SDS011;6774;48.208;10.766;2023-05-07T08:15:45;7.13;;;3.20;;
13406;SDS011;6774;48.208;10.766;2023-05-07T08:18:13;2.57;;;2.47;;
13406;SDS011;6774;48.208;10.766;2023-05-07T08:20:42;2.50;;;2.40;;
13406;SDS011;6774;48.208;10.766;2023-05-07T08:23:14;2.00;;;1.90;;
13406;SDS011;6774;48.208;10.766;2023-05-07T08:25:43;2.00;;;1.90;;
13406;SDS011;6774;48.208;10.766;2023-05-07T08:28:12;2.40;;;2.30;;
13406;SDS011;6774;48.208;10.766;2023-05-07T08:30:41;3.10;;;3.00;;
13406;SDS011;6774;48.208;10.766;2023-05-07T08:33:09;4.20;;;2.87;;
13406;SDS011;6774;48.208;10.766;2023-05-07T08:35:37;3.10;;;2.90;;
13406;SDS011;6774;48.208;10.766;2023-05-07T08:38:06;2.87;;;2.77;;
13406;SDS011;6774;48.208;10.766;2023-05-07T08:40:36;2.97;;;2.73;;
13406;SDS011;6774;48.208;10.766;2023-05-07T08:43:13;2.70;;;2.20;;
13406;SDS011;6774;48.208;10.766;2023-05-07T08:45:44;2.20;;;2.10;;
13406;SDS011;6774;48.208;10.766;2023-05-07T08:48:15;4.67;;;3.47;;
13406;SDS011;6774;48.208;10.766;2023-05-07T08:50:51;1.80;;;1.70;;
13406;SDS011;6774;48.208;10.766;2023-05-07T08:53:20;1.73;;;1.73;;
13406;SDS011;6774;48.208;10.766;2023-05-07T08:55:49;2.63;;;2.30;;
13406;SDS011;6774;48.208;10.766;2023-05-07T08:58:17;2.33;;;2.23;;
13406;SDS011;6774;48.208;10.766;2023-05-07T09:00:46;1.90;;;1.80;;
13406;SDS011;6774;48.208;10.766;2023-05-07T09:03:15;2.20;;;2.10;;
13406;SDS011;6774;48.208;10.766;2023-05-07T09:05:47;2.53;;;2.42;;
13406;SDS011;6774;48.208;10.766;2023-05-07T09:08:17;2.65;;;2.55;;
13406;SDS011;6774;48.208;10.766;2023-05-07T09:10:47;2.60;;;2.42;;
13406;SDS011;6774;48.208;10.766;2023-05-07T09:13:16;2.60;;;2.40;;
13406;SDS011;6774;48.208;10.766;2023-05-07T09:15:44;2.35;;;2.25;;
13406;SDS011;6774;48.208;10.766;2023-05-07T09:18:14;3.10;;;3.00;;
13406;SDS011;6774;48.208;10.766;2023-05-07T09:20:45;2.28;;;1.83;;
13406;SDS011;6774;48.208;10.766;2023-05-07T09:23:13;1.90;;;1.80;;
13406;SDS011;6774;48.208;10.766;2023-05-07T09:25:42;1.65;;;1.55;;
13406;SDS011;6774;48.208;10.766;2023-05-07T09:28:20;1.67;;;1.58;;
13406;SDS011;6774;48.208;10.766;2023-05-07T09:30:49;4.15;;;2.50;;
13406;SDS011;6774;48.208;10.766;2023-05-07T09:33:18;1.80;;;1.70;;
13406;SDS011;6774;48.208;10.766;2023-05-07T09:35:50;2.95;;;2.75;;
13406;SDS011;6774;48.208;10.766;2023-05-07T09:38:19;3.05;;;2.92;;
13406;SDS011;6774;48.208;10.766;2023-05-07T09:41:01;3.75;;;3.60;;
13406;SDS011;6774;48.208;10.766;2023-05-07T09:43:33;2.58;;;2.38;;
13406;SDS011;6774;48.208;10.766;2023-05-07T09:46:05;2.05;;;1.95;;
13406;SDS011;6774;48.208;10.766;2023-05-07T09:48:36;2.83;;;2.72;;
13406;SDS011;6774;48.208;10.766;2023-05-07T09:51:10;2.58;;;2.38;;
13406;SDS011;6774;48.208;10.766;2023-05-07T09:53:44;2.67;;;2.58;;
13406;SDS011;6774;48.208;10.766;2023-05-07T09:56:13;2.20;;;1.80;;
13406;SDS011;6774;48.208;10.766;2023-05-07T09:58:42;4.30;;;2.72;;
13406;SDS011;6774;48.208;10.766;2023-05-07T10:01:12;4.68;;;4.40;;
13406;SDS011;6774;48.208;10.766;2023-05-07T10:03:41;3.28;;;2.00;;
13406;SDS011;6774;48.208;10.766;2023-05-07T10:06:11;1.38;;;1.33;;
13406;SDS011;6774;48.208;10.766;2023-05-07T10:08:40;2.50;;;1.17;;
13406;SDS011;6774;48.208;10.766;2023-05-07T10:11:10;3.55;;;3.35;;
13406;SDS011;6774;48.208;10.766;2023-05-07T10:13:38;4.53;;;2.20;;
13406;SDS011;6774;48.208;10.766;2023-05-07T10:16:08;1.63;;;1.55;;
13406;SDS011;6774;48.208;10.766;2023-05-07T10:18:45;1.73;;;1.67;;
13406;SDS011;6774;48.208;10.766;2023-05-07T10:21:18;1.85;;;1.75;;
13406;SDS011;6774;48.208;10.766;2023-05-07T10:23:50;1.35;;;1.25;;
13406;SDS011;6774;48.208;10.766;2023-05-07T10:26:20;1.80;;;1.60;;
13406;SDS011;6774;48.208;10.766;2023-05-07T10:28:50;1.30;;;1.30;;
13406;SDS011;6774;48.208;10.766;2023-05-07T10:31:31;1.98;;;1.70;;
13406;SDS011;6774;48.208;10.766;2023-05-07T10:34:16;1.92;;;1.83;;
13406;SDS011;6774;48.208;10.766;2023-05-07T10:36:47;2.88;;;1.77;;
13406;SDS011;6774;48.208;10.766;2023-05-07T10:39:16;3.65;;;2.53;;
13406;SDS011;6774;48.208;10.766;2023-05-07T10:41:44;1.85;;;1.75;;
13406;SDS011;6774;48.208;10.766;2023-05-07T10:44:12;1.50;;;1.25;;
13406;SDS011;6774;48.208;10.766;2023-05-07T10:47:05;0.80;;;0.80;;
13406;SDS011;6774;48.208;10.766;2023-05-07T10:49:38;1.38;;;1.38;;
13406;SDS011;6774;48.208;10.766;2023-05-07T10:52:44;2.30;;;2.20;;
13406;SDS011;6774;48.208;10.766;2023-05-07T10:55:20;1.88;;;1.30;;
13406;SDS011;6774;48.208;10.766;2023-05-07T11:01:04;1.27;;;1.08;;
13406;SDS011;6774;48.208;10.766;2023-05-07T11:03:36;0.80;;;0.80;;
13406;SDS011;6774;48.208;10.766;2023-05-07T11:06:58;0.60;;;0.60;;
13406;SDS011;6774;48.208;10.766;2023-05-07T11:09:54;1.13;;;1.13;;
13406;SDS011;6774;48.208;10.766;2023-05-07T11:12:54;0.88;;;0.88;;
13406;SDS011;6774;48.208;10.766;2023-05-07T11:15:43;1.17;;;1.17;;
13406;SDS011;6774;48.208;10.766;2023-05-07T11:18:45;0.60;;;0.60;;
13406;SDS011;6774;48.208;10.766;2023-05-07T11:21:23;2.28;;;1.45;;
13406;SDS011;6774;48.208;10.766;2023-05-07T11:24:08;0.90;;;0.90;;
13406;SDS011;6774;48.208;10.766;2023-05-07T11:26:51;1.30;;;1.10;;
13406;SDS011;6774;48.208;10.766;2023-05-07T11:29:21;0.82;;;0.82;;
13406;SDS011;6774;48.208;10.766;2023-05-07T11:31:55;3.53;;;2.17;;
13406;SDS011;6774;48.208;10.766;2023-05-07T11:34:28;7.25;;;2.10;;
13406;SDS011;6774;48.208;10.766;2023-05-07T11:36:58;2.33;;;1.67;;
13406;SDS011;6774;48.208;10.766;2023-05-07T11:39:41;1.70;;;1.23;;
13406;SDS011;6774;48.208;10.766;2023-05-07T11:44:54;9.27;;;1.52;;
13406;SDS011;6774;48.208;10.766;2023-05-07T11:47:22;0.75;;;0.75;;
13406;SDS011;6774;48.208;10.766;2023-05-07T11:49:52;1.75;;;1.55;;
13406;SDS011;6774;48.208;10.766;2023-05-07T11:52:21;0.90;;;0.90;;
13406;SDS011;6774;48.208;10.766;2023-05-07T11:54:52;1.02;;;1.02;;
13406;SDS011;6774;48.208;10.766;2023-05-07T11:57:21;1.25;;;1.20;;
13406;SDS011;6774;48.208;10.766;2023-05-07T11:59:52;2.22;;;2.13;;
13406;SDS011;6774;48.208;10.766;2023-05-07T12:02:20;0.93;;;0.93;;
13406;SDS011;6774;48.208;10.766;2023-05-07T12:04:48;1.40;;;0.90;;
13406;SDS011;6774;48.208;10.766;2023-05-07T12:07:15;1.00;;;0.90;;
13406;SDS011;6774;48.208;10.766;2023-05-07T12:09:44;0.82;;;0.82;;
13406;SDS011;6774;48.208;10.766;2023-05-07T12:12:14;1.25;;;0.50;;
13406;SDS011;6774;48.208;10.766;2023-05-07T12:14:43;1.70;;;1.60;;
13406;SDS011;6774;48.208;10.766;2023-05-07T12:17:13;0.55;;;0.55;;
13406;SDS011;6774;48.208;10.766;2023-05-07T12:19:42;1.42;;;1.33;;
13406;SDS011;6774;48.208;10.766;2023-05-07T12:22:11;1.77;;;1.25;;
13406;SDS011;6774;48.208;10.766;2023-05-07T12:24:43;2.55;;;1.67;;
13406;SDS011;6774;48.208;10.766;2023-05-07T12:27:12;1.23;;;0.93;;
13406;SDS011;6774;48.208;10.766;2023-05-07T12:29:44;0.70;;;0.70;;
13406;SDS011;6774;48.208;10.766;2023-05-07T12:32:13;2.10;;;2.00;;
13406;SDS011;6774;48.208;10.766;2023-05-07T12:34:42;0.70;;;0.70;;
13406;SDS011;6774;48.208;10.766;2023-05-07T12:37:11;0.95;;;0.95;;
13406;SDS011;6774;48.208;10.766;2023-05-07T12:39:43;4.82;;;1.35;;
13406;SDS011;6774;48.208;10.766;2023-05-07T12:42:14;1.60;;;1.15;;
13406;SDS011;6774;48.208;10.766;2023-05-07T12:44:43;0.70;;;0.70;;
13406;SDS011;6774;48.208;10.766;2023-05-07T12:47:14;6.63;;;2.60;;
13406;SDS011;6774;48.208;10.766;2023-05-07T12:49:42;3.22;;;1.23;;
13406;SDS011;6774;48.208;10.766;2023-05-07T12:52:12;1.02;;;0.80;;
13406;SDS011;6774;48.208;10.766;2023-05-07T12:54:40;1.67;;;1.55;;
13406;SDS011;6774;48.208;10.766;2023-05-07T12:57:08;0.68;;;0.60;;
13406;SDS011;6774;48.208;10.766;2023-05-07T12:59:37;1.00;;;0.88;;
13406;SDS011;6774;48.208;10.766;2023-05-07T13:02:07;0.70;;;0.50;;
13406;SDS011;6774;48.208;10.766;2023-05-07T13:04:37;0.57;;;0.57;;
13406;SDS011;6774;48.208;10.766;2023-05-07T13:07:05;2.13;;;2.03;;
13406;SDS011;6774;48.208;10.766;2023-05-07T13:09:32;1.38;;;1.27;;
13406;SDS011;6774;48.208;10.766;2023-05-07T13:12:00;0.93;;;0.93;;
13406;SDS011;6774;48.208;10.766;2023-05-07T13:14:28;1.45;;;1.45;;
13406;SDS011;6774;48.208;10.766;2023-05-07T13:16:56;0.68;;;0.68;;
13406;SDS011;6774;48.208;10.766;2023-05-07T13:19:25;2.42;;;0.80;;
13406;SDS011;6774;48.208;10.766;2023-05-07T13:21:55;2.33;;;2.13;;
13406;SDS011;6774;48.208;10.766;2023-05-07T13:24:23;1.15;;;1.02;;
13406;SDS011;6774;48.208;10.766;2023-05-07T13:26:50;0.95;;;0.95;;
13406;SDS011;6774;48.208;10.766;2023-05-07T13:29:18;0.88;;;0.88;;
13406;SDS011;6774;48.208;10.766;2023-05-07T13:31:47;1.05;;;1.02;;
13406;SDS011;6774;48.208;10.766;2023-05-07T13:34:15;2.03;;;1.60;;
13406;SDS011;6774;48.208;10.766;2023-05-07T13:36:44;0.93;;;0.93;;
13406;SDS011;6774;48.208;10.766;2023-05-07T13:39:12;1.05;;;1.05;;
13406;SDS011;6774;48.208;10.766;2023-05-07T13:41:40;0.88;;;0.88;;
13406;SDS011;6774;48.208;10.766;2023-05-07T13:44:07;1.45;;;1.35;;
13406;SDS011;6774;48.208;10.766;2023-05-07T13:46:35;1.40;;;1.17;;
13406;SDS011;6774;48.208;10.766;2023-05-07T13:49:03;0.95;;;0.95;;
13406;SDS011;6774;48.208;10.766;2023-05-07T13:51:31;1.25;;;1.25;;
13406;SDS011;6774;48.208;10.766;2023-05-07T13:54:00;1.13;;;1.13;;
13406;SDS011;6774;48.208;10.766;2023-05-07T13:56:27;2.33;;;1.23;;
13406;SDS011;6774;48.208;10.766;2023-05-07T13:58:57;1.45;;;1.08;;
13406;SDS011;6774;48.208;10.766;2023-05-07T14:01:26;0.98;;;0.98;;
13406;SDS011;6774;48.208;10.766;2023-05-07T14:03:55;1.05;;;1.05;;
13406;SDS011;6774;48.208;10.766;2023-05-07T14:06:23;1.40;;;1.00;;
13406;SDS011;6774;48.208;10.766;2023-05-07T14:08:50;0.90;;;0.90;;
13406;SDS011;6774;48.208;10.766;2023-05-07T14:11:20;1.70;;;1.60;;
13406;SDS011;6774;48.208;10.766;2023-05-07T14:13:47;3.97;;;2.30;;
13406;SDS011;6774;48.208;10.766;2023-05-07T14:16:15;1.13;;;1.02;;
13406;SDS011;6774;48.208;10.766;2023-05-07T14:18:43;1.63;;;1.08;;
13406;SDS011;6774;48.208;10.766;2023-05-07T14:21:10;6.47;;;2.33;;
13406;SDS011;6774;48.208;10.766;2023-05-07T14:23:38;1.38;;;1.27;;
13406;SDS011;6774;48.208;10.766;2023-05-07T14:26:06;1.77;;;1.02;;
13406;SDS011;6774;48.208;10.766;2023-05-07T14:28:35;0.80;;;0.80;;
13406;SDS011;6774;48.208;10.766;2023-05-07T14:31:05;1.02;;;1.02;;
13406;SDS011;6774;48.208;10.766;2023-05-07T14:33:33;2.45;;;1.10;;
13406;SDS011;6774;48.208;10.766;2023-05-07T14:36:01;1.27;;;1.10;;
13406;SDS011;6774;48.208;10.766;2023-05-07T14:38:29;1.75;;;1.65;;
13406;SDS011;6774;48.208;10.766;2023-05-07T14:40:59;1.20;;;1.10;;
13406;SDS011;6774;48.208;10.766;2023-05-07T14:43:27;2.53;;;2.33;;
13406;SDS011;6774;48.208;10.766;2023-05-07T14:45:56;1.50;;;1.40;;
13406;SDS011;6774;48.208;10.766;2023-05-07T14:48:24;1.42;;;1.20;;
13406;SDS011;6774;48.208;10.766;2023-05-07T14:50:51;3.03;;;1.15;;
13406;SDS011;6774;48.208;10.766;2023-05-07T14:53:19;5.88;;;2.08;;
13406;SDS011;6774;48.208;10.766;2023-05-07T14:55:47;3.28;;;1.30;;
13406;SDS011;6774;48.208;10.766;2023-05-07T14:58:15;2.30;;;1.45;;
13406;SDS011;6774;48.208;10.766;2023-05-07T15:00:43;2.15;;;2.05;;
13406;SDS011;6774;48.208;10.766;2023-05-07T15:03:12;3.80;;;1.48;;
13406;SDS011;6774;48.208;10.766;2023-05-07T15:05:42;2.63;;;1.20;;
13406;SDS011;6774;48.208;10.766;2023-05-07T15:08:10;1.83;;;1.73;;
13406;SDS011;6774;48.208;10.766;2023-05-07T15:10:37;3.10;;;2.80;;
13406;SDS011;6774;48.208;10.766;2023-05-07T15:13:07;2.13;;;2.03;;